Greenlawn, New York
Current Conditions -  °F | °C
As of 10:53 AM on Sunday 23 Nov 2014 (Local Time) from KFRG Reporting Station
Broken Clouds Broken Clouds  
Wind Chill: 50°   Ceiling: 11000
Heat Index: 50°   Visibility: 10mi
Dew Point: 28°   Wind: 9mph
Humidity: 43%   Direction: 200°SSW
Pressure: 30.2"   Gusts: NA
Location:  40.86°N, 73.36°W
Report Text: KFRG 231553Z 20008KT 10SM BKN110 10/M02 A3020 RMK AO2 SLP225 T01001022
Loading
Personal Weather Stations






























Interactive Weather Map New forecast layout! Learn more

10-Day Weather Forecast

Advertisements
Track Severe Weather on mobile